Time;durP1;ratioP1;P1;durP2;ratioP2;P2;SDS_P1;SDS_P2;PMS_P1;PMS_P2;Temp;Humidity;BMP_temperature;BMP_pressure;BME280_temperature;BME280_humidity;BME280_pressure;Samples;Min_cycle;Max_cycle;Signal;HPM_P1;HPM_P2
2022/11/05 00:09:28;;;;;;;1.47;1.37;;;9.00;99.90;;;;;;5126709;27;20647;-85
2022/11/05 00:09:29;;;;;;;1.23;1.03;;;8.90;99.90;;;;;;5112573;27;20631;-85
2022/11/05 00:17:22;;;;;;;2.37;1.43;;;8.90;99.90;;;;;;5126433;27;20623;-85
2022/11/05 00:19:49;;;;;;;0.70;0.70;;;8.90;99.90;;;;;;5118763;27;20655;-85
2022/11/05 00:25:15;;;;;;;8.73;2.53;;;8.90;99.90;;;;;;5116674;27;20623;-85
2022/11/05 00:27:43;;;;;;;2.87;2.67;;;8.90;99.90;;;;;;5117114;27;20624;-86
2022/11/05 00:30:12;;;;;;;0.70;0.70;;;8.90;99.90;;;;;;5116843;27;20626;-86
2022/11/05 00:32:39;;;;;;;1.23;1.10;;;8.90;99.90;;;;;;5116677;27;20690;-86
2022/11/05 00:35:07;;;;;;;0.77;0.60;;;8.90;99.90;;;;;;5118451;27;20611;-86
2022/11/05 00:37:35;;;;;;;0.80;0.80;;;8.80;99.90;;;;;;5118502;27;20626;-86
2022/11/05 00:40:03;;;;;;;0.50;0.50;;;8.80;99.90;;;;;;5118768;27;20742;-86
2022/11/05 00:45:14;;;;;;;1.20;1.10;;;8.90;99.90;;;;;;5118607;27;20665;-86
2022/11/05 00:50:26;;;;;;;0.93;0.60;;;8.70;99.90;;;;;;5117490;27;20610;-86
2022/11/05 00:52:56;;;;;;;1.30;0.67;;;8.90;99.90;;;;;;5114854;27;21304;-85
2022/11/05 00:55:27;;;;;;;1.30;0.73;;;8.80;99.90;;;;;;5116095;27;20650;-86
2022/11/05 00:57:54;;;;;;;0.83;0.80;;;8.80;99.90;;;;;;5118265;27;20622;-86
2022/11/05 01:00:22;;;;;;;0.83;0.50;;;8.90;99.90;;;;;;5113694;27;20708;-87
2022/11/05 01:02:49;;;;;;;1.73;0.87;;;10.00;99.90;;;;;;5115801;27;20623;-86
2022/11/05 01:05:16;;;;;;;0.90;0.60;;;8.90;99.90;;;;;;5117066;27;20625;-85
2022/11/05 01:07:44;;;;;;;1.33;0.70;;;8.90;99.90;;;;;;5116915;27;20629;-85
2022/11/05 01:10:12;;;;;;;0.70;0.60;;;8.90;99.90;;;;;;5114738;27;20981;-85
2022/11/05 01:12:39;;;;;;;0.60;0.43;;;8.80;99.90;;;;;;5118261;27;21116;-85
2022/11/05 01:15:07;;;;;;;0.70;0.70;;;8.80;99.90;;;;;;5115140;27;20721;-85
2022/11/05 01:17:34;;;;;;;1.10;1.03;;;8.80;99.90;;;;;;5116591;27;20628;-85
2022/11/05 01:20:00;;;;;;;23.63;0.90;;;8.80;99.90;;;;;;5116022;27;20727;-85
2022/11/05 01:22:27;;;;;;;0.50;0.50;;;8.80;99.90;;;;;;5117573;27;20611;-85
2022/11/05 01:24:54;;;;;;;1.17;0.70;;;8.70;99.90;;;;;;5118093;27;20684;-85
2022/11/05 01:27:22;;;;;;;0.73;0.50;;;8.80;99.90;;;;;;5117779;27;20727;-86
2022/11/05 01:29:49;;;;;;;0.83;0.70;;;8.80;99.90;;;;;;5116038;27;20615;-86
2022/11/05 01:32:16;;;;;;;1.07;0.60;;;8.80;99.90;;;;;;5118832;27;20721;-86
2022/11/05 01:34:43;;;;;;;0.60;0.40;;;8.80;99.90;;;;;;5116039;27;20666;-85
2022/11/05 01:37:09;;;;;;;0.43;0.43;;;8.80;99.90;;;;;;5117073;27;20622;-86
2022/11/05 01:39:36;;;;;;;0.30;0.30;;;8.80;99.90;;;;;;5114415;27;20703;-86
2022/11/05 01:42:05;;;;;;;0.80;0.50;;;8.80;99.90;;;;;;5115213;28;20681;-85
2022/11/05 01:44:55;;;;;;;0.60;0.60;;;8.80;99.90;;;;;;5116482;27;20706;-85
2022/11/05 01:47:31;;;;;;;0.70;0.70;;;9.00;99.90;;;;;;5114880;28;20719;-85
2022/11/05 01:50:00;;;;;;;0.40;0.40;;;8.80;99.90;;;;;;5113964;28;20738;-85
2022/11/05 01:52:30;;;;;;;0.50;0.40;;;8.80;99.90;;;;;;5118286;27;20656;-85
2022/11/05 01:54:57;;;;;;;1.00;0.80;;;8.70;99.90;;;;;;5115923;28;20653;-86
2022/11/05 01:57:25;;;;;;;0.40;0.37;;;8.80;99.90;;;;;;5116387;27;20671;-86
2022/11/05 01:59:58;;;;;;;1.07;0.60;;;8.80;99.90;;;;;;5115942;28;20686;-86
2022/11/05 02:02:25;;;;;;;0.83;0.83;;;8.70;99.90;;;;;;5114250;28;21192;-85
2022/11/05 02:04:56;;;;;;;0.83;0.60;;;8.70;99.90;;;;;;5114913;27;20719;-85
2022/11/05 02:07:25;;;;;;;0.40;0.40;;;8.80;99.90;;;;;;5116051;27;20623;-85
2022/11/05 02:09:57;;;;;;;1.27;0.50;;;8.80;99.90;;;;;;5115250;28;20667;-85
2022/11/05 02:12:24;;;;;;;4.47;0.70;;;9.90;99.90;;;;;;5115313;28;20672;-85
2022/11/05 02:14:52;;;;;;;0.60;0.50;;;8.90;99.90;;;;;;5115578;28;20629;-84
2022/11/05 02:17:30;;;;;;;1.00;0.93;;;8.80;99.90;;;;;;5117108;28;20623;-85
2022/11/05 02:20:16;;;;;;;0.40;0.40;;;8.90;99.90;;;;;;5116548;28;20620;-84
2022/11/05 02:23:12;;;;;;;0.60;0.60;;;8.90;99.90;;;;;;5115069;27;20611;-84
2022/11/05 02:25:57;;;;;;;0.50;0.50;;;8.80;99.90;;;;;;5115936;27;20627;-85
2022/11/05 02:28:46;;;;;;;0.87;0.83;;;8.90;99.90;;;;;;5115167;28;20649;-85
2022/11/05 02:31:20;;;;;;;0.70;0.50;;;8.90;99.90;;;;;;5116389;28;21195;-84
2022/11/05 02:33:56;;;;;;;0.63;0.63;;;8.90;99.90;;;;;;5114777;28;20654;-86
2022/11/05 02:36:38;;;;;;;1.13;1.10;;;8.90;99.90;;;;;;5116155;27;20623;-85
2022/11/05 02:39:19;;;;;;;0.73;0.67;;;8.90;99.90;;;;;;5106279;28;20718;-85
2022/11/05 02:41:52;;;;;;;0.93;0.53;;;8.90;99.90;;;;;;5113158;28;20616;-85
2022/11/05 02:44:29;;;;;;;0.60;0.60;;;9.00;99.90;;;;;;5116187;28;20573;-85
2022/11/05 02:47:05;;;;;;;0.30;0.30;;;8.90;99.90;;;;;;5116273;28;20962;-85
2022/11/05 02:49:41;;;;;;;1.00;0.40;;;8.90;99.90;;;;;;5113667;28;20607;-85
2022/11/05 02:52:14;;;;;;;0.50;0.50;;;8.80;99.90;;;;;;5109801;27;21274;-85
2022/11/05 02:54:48;;;;;;;0.50;0.50;;;8.80;99.90;;;;;;5111232;27;20691;-85
2022/11/05 02:57:15;;;;;;;0.70;0.67;;;8.80;99.90;;;;;;5112092;27;20627;-85
2022/11/05 02:59:42;;;;;;;0.30;0.20;;;9.20;99.90;;;;;;5120053;27;20649;-85
2022/11/05 03:02:10;;;;;;;0.53;0.53;;;8.90;99.90;;;;;;5117923;27;20630;-85
2022/11/05 03:04:37;;;;;;;0.40;0.40;;;8.80;99.90;;;;;;5112717;27;20659;-85
2022/11/05 03:07:16;;;;;;;0.40;0.30;;;8.80;99.90;;;;;;5117978;27;20646;-85
2022/11/05 03:10:11;;;;;;;2.10;0.87;;;8.90;99.90;;;;;;5110943;28;20687;-85
2022/11/05 03:12:48;;;;;;;0.40;0.40;;;8.90;99.90;;;;;;5114560;27;20722;-85
2022/11/05 03:15:26;;;;;;;0.77;0.77;;;8.90;99.90;;;;;;5126898;27;20622;-85
2022/11/05 03:18:02;;;;;;;0.60;0.60;;;8.90;99.90;;;;;;5117501;27;20615;-84
2022/11/05 03:20:37;;;;;;;0.83;0.83;;;8.80;99.90;;;;;;5125718;27;20634;-84
2022/11/05 03:23:10;;;;;;;0.67;0.60;;;8.90;99.90;;;;;;5116169;27;21064;-84
2022/11/05 03:25:43;;;;;;;0.50;0.50;;;8.90;99.90;;;;;;5128459;27;21030;-85
2022/11/05 03:28:12;;;;;;;0.50;0.30;;;8.80;99.90;;;;;;5119296;27;21280;-85
2022/11/05 03:30:41;;;;;;;0.67;0.40;;;8.80;99.90;;;;;;5118324;27;20690;-85
2022/11/05 03:33:14;;;;;;;0.60;0.40;;;8.80;99.90;;;;;;5111963;27;20655;-85
2022/11/05 03:35:46;;;;;;;0.60;0.60;;;8.80;99.90;;;;;;5110131;28;20611;-85
2022/11/05 03:38:18;;;;;;;0.57;0.57;;;8.80;99.90;;;;;;5116175;27;20626;-86
2022/11/05 03:40:52;;;;;;;0.40;0.40;;;8.70;99.90;;;;;;5109803;27;20996;-86
2022/11/05 03:43:23;;;;;;;0.63;0.37;;;9.10;99.90;;;;;;5117337;27;20637;-86
2022/11/05 03:45:57;;;;;;;1.07;0.87;;;8.70;99.90;;;;;;5110347;27;21217;-86
2022/11/05 03:48:28;;;;;;;0.80;0.53;;;8.70;99.90;;;;;;5110538;27;20711;-86
2022/11/05 03:51:00;;;;;;;0.53;0.33;;;8.70;99.90;;;;;;5123615;27;20623;-86
2022/11/05 03:53:30;;;;;;;1.03;1.03;;;8.70;99.90;;;;;;5109416;28;20655;-86
2022/11/05 03:56:02;;;;;;;1.30;0.70;;;8.70;99.90;;;;;;5109492;28;20629;-86
2022/11/05 03:58:30;;;;;;;0.50;0.50;;;8.70;99.90;;;;;;5108587;28;20619;-87
2022/11/05 04:01:00;;;;;;;2.20;1.00;;;8.70;99.90;;;;;;5108655;28;20663;-87
2022/11/05 04:03:34;;;;;;;1.00;0.93;;;8.70;99.90;;;;;;5109066;28;21512;-87
2022/11/05 04:14:15;;;;;;;1.10;0.50;;;8.70;99.90;;;;;;5109588;28;20659;-87
2022/11/05 04:24:56;;;;;;;0.90;0.47;;;8.60;99.90;;;;;;5124766;27;20611;-88
2022/11/05 04:27:23;;;;;;;1.00;0.50;;;8.50;99.90;;;;;;5110453;27;20983;-89
2022/11/05 04:32:34;;;;;;;0.80;0.60;;;8.60;99.90;;;;;;5111159;27;20695;-89
2022/11/05 04:35:03;;;;;;;0.60;0.60;;;8.60;99.90;;;;;;5109865;27;20659;-89
2022/11/05 04:37:29;;;;;;;0.40;0.40;;;8.60;99.90;;;;;;5128800;27;20651;-89
2022/11/05 04:39:56;;;;;;;0.50;0.50;;;8.60;99.90;;;;;;5120881;27;20707;-89
2022/11/05 04:42:23;;;;;;;0.47;0.47;;;8.60;99.90;;;;;;5117062;27;20650;-89
2022/11/05 04:44:50;;;;;;;1.43;1.00;;;8.50;99.90;;;;;;5112113;27;20661;-89
2022/11/05 04:47:17;;;;;;;0.57;0.57;;;8.60;99.90;;;;;;5123270;27;20686;-89
2022/11/05 04:49:44;;;;;;;0.90;0.60;;;8.60;99.90;;;;;;5120517;27;20615;-90
2022/11/05 04:52:12;;;;;;;0.67;0.40;;;8.50;99.90;;;;;;5117558;27;21177;-89
2022/11/05 04:54:39;;;;;;;0.73;0.73;;;8.50;99.90;;;;;;5119488;27;20708;-89
2022/11/05 04:57:06;;;;;;;1.00;0.77;;;8.60;99.90;;;;;;5113460;27;20667;-89
2022/11/05 04:59:32;;;;;;;1.60;0.63;;;8.60;99.90;;;;;;5115985;27;20766;-87
2022/11/05 05:01:59;;;;;;;0.80;0.60;;;8.50;99.90;;;;;;5129703;27;20216;-87
2022/11/05 05:04:26;;;;;;;0.80;0.50;;;8.40;99.90;;;;;;5129143;27;20629;-85
2022/11/05 05:06:53;;;;;;;0.60;0.57;;;8.50;99.90;;;;;;5128907;27;20948;-85
2022/11/05 05:09:22;;;;;;;0.50;0.40;;;8.50;99.90;;;;;;5128626;27;21233;-85
2022/11/05 05:11:48;;;;;;;0.50;0.50;;;8.40;99.90;;;;;;5129123;27;20614;-84
2022/11/05 05:14:15;;;;;;;0.67;0.50;;;8.40;99.90;;;;;;5127848;27;20765;-84
2022/11/05 05:16:42;;;;;;;0.70;0.70;;;10.10;99.90;;;;;;5127410;27;20626;-84
2022/11/05 05:19:09;;;;;;;0.40;0.40;;;9.00;99.90;;;;;;5129184;27;20694;-84
2022/11/05 05:21:38;;;;;;;0.90;0.83;;;8.40;99.90;;;;;;5129128;27;21070;-84
2022/11/05 05:24:07;;;;;;;0.40;0.33;;;8.30;99.90;;;;;;5129069;27;21284;-84
2022/11/05 05:26:36;;;;;;;0.40;0.37;;;8.40;99.90;;;;;;5128093;27;21200;-85
2022/11/05 05:29:03;;;;;;;0.80;0.80;;;8.30;99.90;;;;;;5108420;28;20620;-85
2022/11/05 05:31:30;;;;;;;1.10;0.63;;;8.40;99.90;;;;;;5108537;28;20655;-85
2022/11/05 05:33:57;;;;;;;0.77;0.73;;;8.40;99.90;;;;;;5121430;27;21029;-85
2022/11/05 05:36:24;;;;;;;0.40;0.30;;;8.40;99.90;;;;;;5128522;27;20717;-85
2022/11/05 05:38:51;;;;;;;0.87;0.87;;;8.40;99.90;;;;;;5129339;27;20599;-84
2022/11/05 05:41:18;;;;;;;0.60;0.60;;;8.50;99.90;;;;;;5128664;27;20611;-85
2022/11/05 05:43:47;;;;;;;0.50;0.50;;;8.40;99.90;;;;;;5129618;27;20606;-85
2022/11/05 05:46:16;;;;;;;0.67;0.47;;;8.40;99.90;;;;;;5129222;27;20614;-84
2022/11/05 05:48:43;;;;;;;1.03;0.80;;;8.40;99.90;;;;;;5128977;27;21184;-85
2022/11/05 05:51:11;;;;;;;1.13;0.93;;;8.40;99.90;;;;;;5128681;27;20599;-86
2022/11/05 05:53:39;;;;;;;1.53;0.80;;;;;;;;;;5128302;27;20643;-85
2022/11/05 05:56:06;;;;;;;0.60;0.60;;;8.40;99.90;;;;;;5128771;27;20671;-85
2022/11/05 05:58:36;;;;;;;1.90;0.80;;;8.40;99.90;;;;;;5126189;27;20622;-86
2022/11/05 06:01:06;;;;;;;1.63;0.90;;;8.40;99.90;;;;;;5108777;28;20659;-85
2022/11/05 06:03:34;;;;;;;1.60;0.90;;;;;;;;;;5107946;28;20631;-86
2022/11/05 06:06:02;;;;;;;1.33;0.93;;;8.40;99.90;;;;;;5107660;28;20665;-85
2022/11/05 06:08:30;;;;;;;0.60;0.60;;;8.40;99.90;;;;;;5107517;28;20600;-86
2022/11/05 06:10:56;;;;;;;0.70;0.70;;;8.40;99.90;;;;;;5107875;28;20620;-85
2022/11/05 06:13:23;;;;;;;6.33;1.37;;;8.40;99.90;;;;;;5107942;28;20657;-85
2022/11/05 06:15:50;;;;;;;1.93;1.83;;;8.40;99.90;;;;;;5108288;28;21178;-85
2022/11/05 06:18:19;;;;;;;2.60;1.77;;;8.40;99.90;;;;;;5127642;27;20618;-86
2022/11/05 06:20:46;;;;;;;1.57;1.47;;;8.40;99.90;;;;;;5127907;27;21195;-86
2022/11/05 06:23:13;;;;;;;2.40;2.13;;;8.80;99.90;;;;;;5128937;27;20630;-86
2022/11/05 06:25:40;;;;;;;2.03;1.83;;;8.40;99.90;;;;;;5128398;27;20674;-86
2022/11/05 06:28:07;;;;;;;4.63;3.03;;;8.40;99.90;;;;;;5118893;27;20634;-86
2022/11/05 06:30:34;;;;;;;3.53;2.73;;;8.40;99.90;;;;;;5111950;28;21018;-86
2022/11/05 06:33:04;;;;;;;5.90;3.23;;;8.40;99.90;;;;;;5112155;28;20647;-86
2022/11/05 06:35:33;;;;;;;3.43;3.10;;;8.50;99.90;;;;;;5111413;28;21240;-86
2022/11/05 06:38:00;;;;;;;3.50;2.77;;;8.40;99.90;;;;;;5111659;28;20608;-86
2022/11/05 06:40:28;;;;;;;3.97;3.30;;;8.50;99.90;;;;;;5111745;28;20608;-86
2022/11/05 06:42:55;;;;;;;2.20;1.70;;;8.50;99.90;;;;;;5112161;28;20604;-86
2022/11/05 06:45:22;;;;;;;3.20;2.40;;;;;;;;;;5111775;28;20596;-86
2022/11/05 06:47:55;;;;;;;4.93;4.47;;;8.50;99.90;;;;;;5110649;28;20607;-86
2022/11/05 06:50:23;;;;;;;13.03;4.00;;;8.50;99.90;;;;;;5111896;28;21093;-86
2022/11/05 06:52:55;;;;;;;10.93;5.83;;;8.40;99.90;;;;;;5111666;28;20635;-85
2022/11/05 06:55:22;;;;;;;7.53;5.30;;;8.40;99.90;;;;;;5110551;28;20808;-85
2022/11/05 06:57:49;;;;;;;6.30;5.23;;;9.30;99.90;;;;;;5111160;27;20622;-86
2022/11/05 07:00:17;;;;;;;5.20;3.97;;;8.40;99.90;;;;;;5128128;27;20627;-86
2022/11/05 07:02:44;;;;;;;7.87;4.70;;;;;;;;;;5132052;27;20614;-86
2022/11/05 07:05:12;;;;;;;5.37;3.80;;;;;;;;;;5132236;27;20598;-86
2022/11/05 07:07:39;;;;;;;8.40;5.27;;;8.40;99.90;;;;;;5131488;27;20618;-87
2022/11/05 07:10:12;;;;;;;5.97;3.50;;;8.40;99.90;;;;;;5131359;27;20971;-86
2022/11/05 07:12:39;;;;;;;9.70;5.37;;;8.40;99.90;;;;;;5131640;27;20619;-86
2022/11/05 07:15:07;;;;;;;11.53;6.00;;;8.40;99.90;;;;;;5131483;27;20666;-86
2022/11/05 07:17:34;;;;;;;4.87;3.97;;;8.40;99.90;;;;;;5131143;27;21251;-86
2022/11/05 07:20:02;;;;;;;7.57;4.70;;;8.40;99.90;;;;;;5132365;27;21184;-86
2022/11/05 07:22:29;;;;;;;7.23;5.73;;;8.50;99.90;;;;;;5131309;27;21393;-87
2022/11/05 07:24:56;;;;;;;4.40;3.40;;;8.40;99.90;;;;;;5131675;27;21144;-86
2022/11/05 07:27:24;;;;;;;4.77;3.20;;;8.50;99.90;;;;;;5123809;27;20612;-85
2022/11/05 07:29:51;;;;;;;7.30;3.80;;;9.10;99.90;;;;;;5110981;28;20623;-85
2022/11/05 07:32:18;;;;;;;6.17;4.17;;;8.50;99.90;;;;;;5110976;28;20944;-85
2022/11/05 07:34:45;;;;;;;3.10;2.60;;;8.40;99.90;;;;;;5110725;28;20727;-86
2022/11/05 07:37:15;;;;;;;4.77;3.97;;;8.40;99.90;;;;;;5110153;28;20623;-87
2022/11/05 07:39:42;;;;;;;8.77;4.37;;;8.50;99.90;;;;;;5110391;28;20608;-86
2022/11/05 07:42:12;;;;;;;6.17;4.77;;;8.40;99.90;;;;;;5110145;28;20975;-87
2022/11/05 07:44:40;;;;;;;14.50;5.30;;;8.40;99.90;;;;;;5110992;28;20731;-87
2022/11/05 07:47:07;;;;;;;4.67;4.03;;;8.40;99.90;;;;;;5110070;28;20682;-86
2022/11/05 07:49:34;;;;;;;6.87;3.90;;;8.30;99.90;;;;;;5110478;28;21255;-86
2022/11/05 07:52:01;;;;;;;5.20;4.67;;;8.40;99.90;;;;;;5110311;28;20607;-86
2022/11/05 07:54:28;;;;;;;3.60;2.93;;;8.40;99.90;;;;;;5109726;28;20666;-86
2022/11/05 07:56:55;;;;;;;6.83;5.23;;;8.40;99.90;;;;;;5110389;28;20636;-86
2022/11/05 07:59:22;;;;;;;4.13;2.63;;;9.10;99.90;;;;;;5122592;27;20660;-86
2022/11/05 08:01:50;;;;;;;3.37;3.07;;;8.50;99.90;;;;;;5130652;27;21207;-88
2022/11/05 08:04:17;;;;;;;4.83;4.20;;;8.50;99.90;;;;;;5131183;27;20663;-85
2022/11/05 08:06:44;;;;;;;6.50;4.10;;;8.50;99.90;;;;;;5130272;27;20666;-85
2022/11/05 08:09:11;;;;;;;8.53;3.37;;;8.30;99.90;;;;;;5129276;27;20710;-85
2022/11/05 08:11:38;;;;;;;4.50;2.93;;;8.40;99.90;;;;;;5130475;27;20607;-85
2022/11/05 08:14:05;;;;;;;5.40;4.10;;;8.40;99.90;;;;;;5130267;27;20604;-85
2022/11/05 08:16:32;;;;;;;4.53;2.40;;;8.40;99.90;;;;;;5130002;27;20659;-85
2022/11/05 08:19:00;;;;;;;3.77;3.07;;;8.40;99.90;;;;;;5130146;27;20632;-85
2022/11/05 08:21:27;;;;;;;3.77;3.40;;;8.50;99.90;;;;;;5129913;27;20644;-85
2022/11/05 08:23:54;;;;;;;3.23;2.10;;;8.50;99.90;;;;;;5130084;27;20715;-86
2022/11/05 08:26:21;;;;;;;3.67;3.03;;;8.40;99.90;;;;;;5130013;27;20659;-85
2022/11/05 08:28:48;;;;;;;2.00;1.90;;;;;;;;;;5111180;27;20697;-85
2022/11/05 08:31:16;;;;;;;1.57;1.47;;;8.30;99.90;;;;;;5110124;28;20620;-84
2022/11/05 08:33:44;;;;;;;2.63;1.63;;;8.20;99.90;;;;;;5109713;28;20623;-88
2022/11/05 08:36:12;;;;;;;2.77;1.90;;;8.20;99.90;;;;;;5108782;28;20766;-87
2022/11/05 08:38:39;;;;;;;2.57;1.60;;;8.20;99.90;;;;;;5109311;28;21328;-87
2022/11/05 08:41:06;;;;;;;2.60;1.30;;;8.20;99.90;;;;;;5109725;28;20714;-87
2022/11/05 08:43:33;;;;;;;1.87;1.77;;;8.10;99.90;;;;;;5109424;28;20661;-88
2022/11/05 08:46:00;;;;;;;1.50;1.17;;;8.00;99.90;;;;;;5109869;28;20659;-88
2022/11/05 08:48:27;;;;;;;0.70;0.70;;;8.10;99.90;;;;;;5108922;28;21019;-87
2022/11/05 08:50:55;;;;;;;1.60;1.03;;;8.10;99.90;;;;;;5109253;28;21061;-87
2022/11/05 08:53:25;;;;;;;2.63;1.70;;;8.00;99.90;;;;;;5109511;28;20608;-87
2022/11/05 08:55:52;;;;;;;1.80;1.70;;;8.20;99.90;;;;;;5109111;28;21228;-87
2022/11/05 08:58:19;;;;;;;3.00;2.47;;;8.00;99.90;;;;;;5109539;27;20642;-87
2022/11/05 09:00:48;;;;;;;1.80;1.40;;;8.10;99.90;;;;;;5129384;27;21200;-86
2022/11/05 09:03:15;;;;;;;2.20;1.50;;;8.10;99.90;;;;;;5129120;27;20611;-87
2022/11/05 09:05:43;;;;;;;2.03;1.83;;;8.10;99.90;;;;;;5129860;27;21180;-87
2022/11/05 09:08:11;;;;;;;1.70;1.60;;;8.20;99.90;;;;;;5128844;27;21058;-86
2022/11/05 09:10:40;;;;;;;1.73;1.13;;;8.20;99.90;;;;;;5129706;27;20630;-86
2022/11/05 09:13:07;;;;;;;1.60;1.50;;;8.30;99.90;;;;;;5129490;27;20607;-86
2022/11/05 09:15:35;;;;;;;1.53;1.40;;;8.90;99.90;;;;;;5128901;27;20676;-86
2022/11/05 09:18:04;;;;;;;2.70;1.93;;;8.20;99.90;;;;;;5129088;27;20639;-86
2022/11/05 09:20:32;;;;;;;3.57;1.83;;;8.20;99.90;;;;;;5129601;27;20658;-86
2022/11/05 09:22:59;;;;;;;1.70;1.57;;;8.20;99.90;;;;;;5129219;27;20642;-86
2022/11/05 09:25:27;;;;;;;3.73;3.17;;;8.10;99.90;;;;;;5129787;27;20623;-86
2022/11/05 09:28:08;;;;;;;1.70;1.17;;;8.10;99.90;;;;;;5117544;27;20631;-86
2022/11/05 09:30:39;;;;;;;2.87;1.17;;;8.20;99.90;;;;;;5108494;28;20611;-86
2022/11/05 09:33:06;;;;;;;1.13;1.03;;;;;;;;;;5111249;28;20639;-86
2022/11/05 09:35:33;;;;;;;0.60;0.60;;;8.20;99.90;;;;;;5129245;27;21195;-85
2022/11/05 09:38:00;;;;;;;1.60;1.07;;;8.20;99.90;;;;;;5128601;27;20627;-86
2022/11/05 09:40:31;;;;;;;0.80;0.80;;;8.30;99.90;;;;;;5129335;27;20687;-85
2022/11/05 09:43:00;;;;;;;3.97;2.70;;;8.30;99.90;;;;;;5128670;27;20619;-84
2022/11/05 09:45:30;;;;;;;1.03;0.63;;;8.30;99.90;;;;;;5129540;27;20607;-85
2022/11/05 09:48:03;;;;;;;0.83;0.83;;;8.20;99.90;;;;;;5128946;28;20622;-85
2022/11/05 09:50:33;;;;;;;1.17;1.07;;;8.30;99.90;;;;;;5128721;27;21026;-84
2022/11/05 09:53:01;;;;;;;2.70;2.23;;;8.30;99.90;;;;;;5129488;27;20615;-85
2022/11/05 09:55:31;;;;;;;2.93;2.07;;;8.20;99.90;;;;;;5128476;27;21555;-85
2022/11/05 09:58:02;;;;;;;1.43;1.23;;;8.30;99.90;;;;;;5128387;27;20622;-84
2022/11/05 10:00:31;;;;;;;2.13;1.30;;;8.20;99.90;;;;;;5109711;28;20642;-85
2022/11/05 10:03:03;;;;;;;2.43;1.97;;;8.20;99.90;;;;;;5112254;28;20615;-85
2022/11/05 10:05:32;;;;;;;2.00;1.70;;;8.20;99.90;;;;;;5112259;28;20658;-85
2022/11/05 10:08:03;;;;;;;4.57;2.40;;;8.30;99.90;;;;;;5110873;28;20651;-84
2022/11/05 10:10:37;;;;;;;2.07;1.87;;;8.20;99.90;;;;;;5112687;28;20603;-86
2022/11/05 10:13:12;;;;;;;2.30;1.50;;;8.30;99.90;;;;;;5112289;28;21122;-84
2022/11/05 10:15:47;;;;;;;3.10;2.77;;;8.40;99.90;;;;;;5111847;28;20662;-84
2022/11/05 10:18:21;;;;;;;13.57;9.20;;;8.30;99.90;;;;;;5111186;28;20656;-83
2022/11/05 10:20:48;;;;;;;3.33;3.03;;;8.90;99.90;;;;;;5112247;28;20620;-83
2022/11/05 10:23:19;;;;;;;4.07;2.03;;;8.40;99.90;;;;;;5113971;28;20676;-84
2022/11/05 10:25:48;;;;;;;4.43;3.97;;;8.50;99.90;;;;;;5111786;28;21284;-83
2022/11/05 10:28:18;;;;;;;4.17;2.27;;;8.50;99.90;;;;;;5125679;27;21160;-83
2022/11/05 10:30:46;;;;;;;1.20;1.10;;;8.50;99.90;;;;;;5131995;27;20606;-84
2022/11/05 10:33:19;;;;;;;2.20;1.93;;;8.40;99.90;;;;;;5128087;27;20704;-84
2022/11/05 10:35:50;;;;;;;4.47;2.57;;;8.40;99.90;;;;;;5111749;28;20651;-84
2022/11/05 10:38:17;;;;;;;1.40;1.30;;;8.40;99.90;;;;;;5111426;28;20641;-84
2022/11/05 10:40:53;;;;;;;3.13;1.73;;;8.50;99.90;;;;;;5111810;28;20888;-84
2022/11/05 10:43:28;;;;;;;3.23;2.93;;;8.50;99.90;;;;;;5110894;28;20668;-84
2022/11/05 10:46:02;;;;;;;2.63;1.87;;;8.70;99.90;;;;;;5112177;28;20721;-84
2022/11/05 10:48:52;;;;;;;1.87;1.73;;;8.60;99.90;;;;;;5111068;28;21026;-83
2022/11/05 10:51:19;;;;;;;3.93;2.97;;;8.60;99.90;;;;;;5111341;28;20628;-84
2022/11/05 10:53:53;;;;;;;3.17;2.87;;;8.60;99.90;;;;;;5110633;28;21151;-84
2022/11/05 10:56:32;;;;;;;1.63;1.00;;;8.80;99.90;;;;;;5110857;27;20665;-82
2022/11/05 10:59:02;;;;;;;1.27;1.10;;;8.70;99.90;;;;;;5117149;27;20619;-83
2022/11/05 11:01:30;;;;;;;4.93;1.63;;;8.70;99.90;;;;;;5132324;27;20610;-82
2022/11/05 11:04:15;;;;;;;2.60;2.07;;;8.70;99.90;;;;;;5131233;27;20613;-83
2022/11/05 11:06:49;;;;;;;2.83;2.43;;;8.70;99.90;;;;;;5131390;27;20697;-82
2022/11/05 11:09:22;;;;;;;2.80;2.03;;;8.70;99.90;;;;;;5130234;27;20607;-82
2022/11/05 11:11:58;;;;;;;4.77;2.33;;;8.80;99.90;;;;;;5131605;27;20666;-81
2022/11/05 11:14:27;;;;;;;3.40;2.60;;;8.80;99.90;;;;;;5129598;27;21231;-82
2022/11/05 11:16:56;;;;;;;3.70;2.03;;;8.90;99.90;;;;;;5130873;27;20666;-83
2022/11/05 11:19:30;;;;;;;2.97;2.20;;;8.80;99.90;;;;;;5131394;27;20617;-82
2022/11/05 11:22:17;;;;;;;4.20;2.00;;;8.70;99.90;;;;;;5131597;27;20605;-82
2022/11/05 11:24:46;;;;;;;1.77;1.57;;;8.70;99.90;;;;;;5131518;27;20619;-82
2022/11/05 11:27:16;;;;;;;2.37;2.17;;;8.80;99.90;;;;;;5125068;27;20723;-82
2022/11/05 11:29:49;;;;;;;2.03;1.80;;;8.70;99.90;;;;;;5110600;28;20704;-81
2022/11/05 11:32:19;;;;;;;3.40;2.90;;;8.80;99.90;;;;;;5110883;28;20979;-82
2022/11/05 11:34:50;;;;;;;11.83;4.00;;;8.90;99.90;;;;;;5110655;28;20611;-81
2022/11/05 11:37:21;;;;;;;1.80;1.60;;;8.90;99.90;;;;;;5109629;28;20766;-82
2022/11/05 11:39:51;;;;;;;2.77;2.57;;;8.90;99.90;;;;;;5110856;28;20645;-82
2022/11/05 11:42:23;;;;;;;3.90;2.07;;;9.00;99.90;;;;;;5110591;28;20611;-81
2022/11/05 11:44:51;;;;;;;3.07;1.80;;;8.90;99.90;;;;;;5110320;28;21055;-81
2022/11/05 11:47:21;;;;;;;3.40;3.07;;;9.10;99.90;;;;;;5109951;28;20600;-82
2022/11/05 11:49:52;;;;;;;3.37;1.90;;;9.10;99.90;;;;;;5109916;28;20622;-82
2022/11/05 11:52:26;;;;;;;2.13;1.93;;;9.10;99.90;;;;;;5110623;28;20619;-81
2022/11/05 11:54:59;;;;;;;10.23;3.47;;;9.00;99.90;;;;;;5110613;28;20634;-82
2022/11/05 11:57:28;;;;;;;3.37;2.17;;;9.20;99.90;;;;;;5109825;28;20714;-82
2022/11/05 11:59:59;;;;;;;2.90;2.30;;;9.40;99.90;;;;;;5124371;27;20610;-81
2022/11/05 12:02:56;;;;;;;1.70;1.60;;;9.40;99.90;;;;;;5130064;27;20615;-81
2022/11/05 12:05:31;;;;;;;2.37;2.17;;;9.40;99.90;;;;;;5130477;27;21037;-81
2022/11/05 12:08:08;;;;;;;3.17;2.20;;;9.20;99.90;;;;;;5128456;27;21069;-81
2022/11/05 12:10:46;;;;;;;2.80;1.13;;;9.20;99.90;;;;;;5130310;27;20663;-82
2022/11/05 12:13:58;;;;;;;3.93;2.03;;;9.20;99.90;;;;;;5130547;27;20630;-81
2022/11/05 12:16:38;;;;;;;3.07;2.57;;;9.10;99.90;;;;;;5080288;27;20685;-81
2022/11/05 12:19:17;;;;;;;3.10;2.80;;;9.00;99.90;;;;;;5129654;27;21089;-81
2022/11/05 12:21:57;;;;;;;4.40;1.53;;;8.90;99.90;;;;;;5130103;27;20625;-81
2022/11/05 12:24:38;;;;;;;6.73;2.97;;;8.80;99.90;;;;;;5129877;27;20980;-80
2022/11/05 12:27:21;;;;;;;4.53;2.97;;;8.80;99.90;;;;;;5125285;27;20632;-81
2022/11/05 12:29:57;;;;;;;2.40;2.20;;;8.70;99.90;;;;;;5109762;28;21029;-81
2022/11/05 12:32:41;;;;;;;2.10;1.73;;;8.70;99.90;;;;;;5109290;28;20714;-81
2022/11/05 12:35:18;;;;;;;1.00;0.90;;;8.80;99.90;;;;;;5109258;28;20630;-81
2022/11/05 12:37:52;;;;;;;3.80;2.60;;;8.90;99.90;;;;;;5108455;28;20618;-82
2022/11/05 12:40:38;;;;;;;1.60;1.50;;;8.90;99.90;;;;;;5109557;28;20662;-81
2022/11/05 12:43:15;;;;;;;4.10;2.73;;;8.90;99.90;;;;;;5109677;28;20615;-81
2022/11/05 12:45:49;;;;;;;1.43;1.33;;;9.00;99.90;;;;;;5109017;28;21279;-81
2022/11/05 12:48:34;;;;;;;1.77;1.67;;;9.30;99.90;;;;;;5107754;28;21173;-81
2022/11/05 12:51:11;;;;;;;2.80;1.67;;;9.10;99.90;;;;;;5108911;28;21174;-80
2022/11/05 12:53:56;;;;;;;2.17;1.93;;;9.30;99.90;;;;;;5108923;28;20722;-81
2022/11/05 12:56:31;;;;;;;4.40;2.70;;;9.40;99.90;;;;;;5108109;28;20659;-80
2022/11/05 12:59:03;;;;;;;2.20;2.00;;;9.60;99.90;;;;;;5115133;27;20607;-80
2022/11/05 13:01:35;;;;;;;3.57;2.87;;;9.50;99.90;;;;;;5129133;27;21184;-81
2022/11/05 13:04:07;;;;;;;3.80;2.27;;;9.60;99.90;;;;;;5129549;27;20607;-80
2022/11/05 13:06:39;;;;;;;3.20;2.87;;;9.60;99.90;;;;;;5128491;27;20633;-80
2022/11/05 13:09:12;;;;;;;3.37;2.57;;;9.60;99.90;;;;;;5128716;27;20614;-81
2022/11/05 13:11:45;;;;;;;2.33;1.87;;;9.40;99.90;;;;;;5129575;27;20611;-80
2022/11/05 13:14:15;;;;;;;2.53;2.33;;;9.50;99.90;;;;;;5129159;27;21227;-80
2022/11/05 13:16:45;;;;;;;2.80;2.60;;;9.40;99.90;;;;;;5128014;27;21000;-80
2022/11/05 13:19:18;;;;;;;1.90;1.70;;;9.30;99.90;;;;;;5129229;27;20714;-80
2022/11/05 13:21:49;;;;;;;3.13;2.37;;;9.30;99.90;;;;;;5128617;27;20617;-80
2022/11/05 13:24:20;;;;;;;3.53;2.10;;;9.20;99.90;;;;;;5129230;27;20748;-80
2022/11/05 13:26:50;;;;;;;2.70;2.23;;;9.10;99.90;;;;;;5126783;27;20726;-80
2022/11/05 13:29:21;;;;;;;1.70;1.47;;;9.10;99.90;;;;;;5108565;28;20716;-80
2022/11/05 13:31:53;;;;;;;3.23;1.43;;;9.10;99.90;;;;;;5108266;28;20620;-81
2022/11/05 13:34:21;;;;;;;2.43;2.00;;;9.10;99.90;;;;;;5108474;28;20677;-80
2022/11/05 13:39:45;;;;;;;1.83;1.73;;;9.20;99.90;;;;;;5108274;28;20648;-80
2022/11/05 13:42:57;;;;;;;2.20;2.00;;;9.10;99.90;;;;;;5108987;28;21255;-80
2022/11/05 13:45:45;;;;;;;3.40;2.27;;;9.00;99.90;;;;;;5024938;28;20635;-80
2022/11/05 13:48:41;;;;;;;3.03;2.73;;;9.00;99.90;;;;;;5021901;28;21246;-80
2022/11/05 13:51:36;;;;;;;3.00;2.70;;;9.10;99.90;;;;;;5097390;28;20627;-80
2022/11/05 13:54:35;;;;;;;1.50;1.33;;;9.00;99.90;;;;;;5107900;28;20642;-80
2022/11/05 13:57:24;;;;;;;3.20;2.53;;;9.00;99.90;;;;;;5096626;28;20675;-80
2022/11/05 14:00:03;;;;;;;4.50;1.87;;;9.10;99.90;;;;;;5121632;27;20610;-80